Latest Weather Observations for Fawkner Beacon

IDV60801

Issued at 2:42 am EST Friday 26 April 2019 (issued every 10 minutes, with the page automatically refreshed every 10 minutes)

About weather observations | Map of weather stations | Latest weather observations for VIC | Other Formats
Station Details ID: 086376 Name: FAWKNER BEACON Lat: -37.95 Lon: 144.93 Height: 17.0 m
Data from the previous 72 hours. | See also: Recent months at Fawkner Beacon
Date/Time
EST
Temp
°C
App
Temp
°C
Dew
Point
°C
Rel
Hum
%
Delta-T
°C
Wind Press
QNH
hPa
Press
MSL
hPa
Rain since
9am
mm
Dir  Spd
km/h
Gust
km/h
Spd
kts
Gust
kts
26/02:30am - - - - - NW 37 46 20 25 - - -
26/02:00am - - - - - NW 41 46 22 25 - - -
26/01:30am - - - - - NW 33 39 18 21 - - -
26/01:00am - - - - - WNW 39 46 21 25 - - -
26/12:30am - - - - - WNW 41 46 22 25 - - -
26/12:00am - - - - - WNW 28 39 15 21 - - -
 
Date/Time
EST
Temp
°C
App
Temp
°C
Dew
Point
°C
Rel
Hum
%
Delta-T
°C
Wind Press
QNH
hPa
Press
MSL
hPa
Rain since
9am
mm
Dir  Spd
km/h
Gust
km/h
Spd
kts
Gust
kts
25/11:30pm - - - - - WNW 24 30 13 16 - - -
25/11:00pm - - - - - W 30 39 16 21 - - -
25/10:30pm - - - - - WSW 28 35 15 19 - - -
25/10:00pm - - - - - WSW 24 30 13 16 - - -
25/09:30pm - - - - - NW 24 28 13 15 - - -
25/09:00pm - - - - - NW 20 26 11 14 - - -
25/08:30pm - - - - - NW 20 26 11 14 - - -
25/08:00pm - - - - - NW 11 15 6 8 - - -
25/07:30pm - - - - - WSW 13 17 7 9 - - -
25/07:00pm - - - - - WSW 17 22 9 12 - - -
25/06:30pm - - - - - WSW 17 22 9 12 - - -
25/06:00pm - - - - - WSW 17 22 9 12 - - -
25/05:30pm - - - - - SW 22 24 12 13 - - -
25/05:00pm - - - - - SW 17 22 9 12 - - -
25/04:30pm - - - - - S 9 13 5 7 - - -
25/04:00pm - - - - - SW 17 22 9 12 - - -
25/03:30pm - - - - - WNW 15 20 8 11 - - -
25/03:00pm - - - - - W 13 17 7 9 - - -
25/02:30pm - - - - - WSW 15 22 8 12 - - -
25/02:00pm - - - - - WSW 22 28 12 15 - - -
25/01:30pm - - - - - WNW 20 26 11 14 - - -
25/01:00pm - - - - - W 22 28 12 15 - - -
25/12:30pm - - - - - W 24 28 13 15 - - -
25/12:00pm - - - - - W 22 28 12 15 - - -
25/11:30am - - - - - W 6 7 3 4 - - -
25/11:00am - - - - - W 9 15 5 8 - - -
25/10:30am - - - - - WNW 15 20 8 11 - - -
25/10:00am - - - - - WNW 20 26 11 14 - - -
25/09:30am - - - - - NW 20 26 11 14 - - -
25/09:00am - - - - - NW 22 28 12 15 - - -
25/08:30am - - - - - NW 22 28 12 15 - - -
25/08:00am - - - - - NW 24 28 13 15 - - -
25/07:30am - - - - - NW 28 30 15 16 - - -
25/07:00am - - - - - NW 28 32 15 17 - - -
25/06:30am - - - - - NNW 22 26 12 14 - - -
25/06:00am - - - - - NNW 17 22 9 12 - - -
25/05:30am - - - - - NNW 19 22 10 12 - - -
25/05:00am - - - - - WNW 20 24 11 13 - - -
25/04:30am - - - - - NW 17 22 9 12 - - -
25/04:00am - - - - - NW 17 22 9 12 - - -
25/03:30am - - - - - WNW 17 22 9 12 - - -
25/03:00am - - - - - WNW 17 22 9 12 - - -
25/02:30am - - - - - W 13 20 7 11 - - -
25/02:00am - - - - - W 17 22 9 12 - - -
25/01:30am - - - - - W 15 22 8 12 - - -
25/01:00am - - - - - WNW 17 22 9 12 - - -
25/12:30am - - - - - W 17 24 9 13 - - -
25/12:00am - - - - - W 19 24 10 13 - - -
 
Date/Time
EST
Temp
°C
App
Temp
°C
Dew
Point
°C
Rel
Hum
%
Delta-T
°C
Wind Press
QNH
hPa
Press
MSL
hPa
Rain since
9am
mm
Dir  Spd
km/h
Gust
km/h
Spd
kts
Gust
kts
24/11:30pm - - - - - W 19 24 10 13 - - -
24/11:00pm - - - - - W 17 20 9 11 - - -
24/10:30pm - - - - - W 24 28 13 15 - - -
24/10:00pm - - - - - W 17 22 9 12 - - -
24/09:30pm - - - - - W 13 15 7 8 - - -
24/09:00pm - - - - - WSW 9 11 5 6 - - -
24/08:30pm - - - - - SW 9 13 5 7 - - -
24/08:00pm - - - - - S 9 13 5 7 - - -
24/07:30pm - - - - - S 13 15 7 8 - - -
24/07:00pm - - - - - SSW 20 24 11 13 - - -
24/06:30pm - - - - - SSW 20 22 11 12 - - -
24/06:00pm - - - - - S 19 22 10 12 - - -
24/05:30pm - - - - - S 22 26 12 14 - - -
24/05:00pm - - - - - S 28 32 15 17 - - -
24/04:30pm - - - - - S 33 41 18 22 - - -
24/04:00pm - - - - - S 33 41 18 22 - - -
24/03:42pm - - - - - S 28 39 15 21 - - -
24/03:30pm - - - - - SSE 17 20 9 11 - - -
24/03:00pm - - - - - S 20 26 11 14 - - -
24/02:30pm - - - - - SSE 13 17 7 9 - - -
24/02:00pm - - - - - ESE 7 9 4 5 - - -
24/01:30pm - - - - - SSE 6 7 3 4 - - -
24/01:00pm - - - - - CALM 0 0 0 0 - - -
24/12:30pm - - - - - SSW 7 11 4 6 - - -
24/12:00pm - - - - - W 7 9 4 5 - - -
24/11:30am - - - - - NNW 9 15 5 8 - - -
24/11:00am - - - - - N 20 28 11 15 - - -
24/10:30am - - - - - N 17 22 9 12 - - -
24/10:00am - - - - - N 13 17 7 9 - - -
24/09:30am - - - - - NNW 7 11 4 6 - - -
24/09:00am - - - - - NW 6 7 3 4 - - -
24/08:30am - - - - - CALM 0 0 0 0 - - -
24/08:00am - - - - - CALM 0 0 0 0 - - -
24/07:30am - - - - - CALM 0 0 0 0 - - -
24/07:00am - - - - - CALM 0 4 0 2 - - -
24/06:30am - - - - - ENE 6 7 3 4 - - -
24/06:00am - - - - - ENE 4 6 2 3 - - -
24/05:30am - - - - - ENE 6 7 3 4 - - -
24/05:00am - - - - - NE 9 11 5 6 - - -
24/04:30am - - - - - ESE 7 11 4 6 - - -
24/04:00am - - - - - ESE 9 13 5 7 - - -
24/03:30am - - - - - SE 11 15 6 8 - - -
24/03:00am - - - - - SSE 11 15 6 8 - - -
24/02:30am - - - - - SSE 13 15 7 8 - - -
24/02:00am - - - - - SE 11 15 6 8 - - -
24/01:30am - - - - - SE 7 11 4 6 - - -
24/01:00am - - - - - ESE 11 13 6 7 - - -
24/12:30am - - - - - ESE 13 15 7 8 - - -
24/12:00am - - - - - E 11 15 6 8 - - -
 
Date/Time
EST
Temp
°C
App
Temp
°C
Dew
Point
°C
Rel
Hum
%
Delta-T
°C
Wind Press
QNH
hPa
Press
MSL
hPa
Rain since
9am
mm
Dir  Spd
km/h
Gust
km/h
Spd
kts
Gust
kts
23/11:30pm - - - - - E 15 20 8 11 - - -
23/11:00pm - - - - - ESE 15 17 8 9 - - -
23/10:30pm - - - - - ESE 19 22 10 12 - - -
23/10:00pm - - - - - SE 19 22 10 12 - - -
23/09:30pm - - - - - SE 22 26 12 14 - - -
23/09:00pm - - - - - SE 22 26 12 14 - - -
23/08:30pm - - - - - SE 24 28 13 15 - - -
23/08:00pm - - - - - SE 24 28 13 15 - - -
23/07:30pm - - - - - SE 26 30 14 16 - - -
23/07:00pm - - - - - SE 28 32 15 17 - - -
23/06:30pm - - - - - SSE 30 33 16 18 - - -
23/06:00pm - - - - - SSE 24 30 13 16 - - -
23/05:30pm - - - - - SSW 17 20 9 11 - - -
23/05:00pm - - - - - SSW 17 20 9 11 - - -
23/04:30pm - - - - - SSW 15 17 8 9 - - -
23/04:00pm - - - - - S 13 15 7 8 - - -
23/03:30pm - - - - - S 13 17 7 9 - - -
23/03:00pm - - - - - S 13 17 7 9 - - -
23/02:30pm - - - - - S 13 15 7 8 - - -
23/02:00pm - - - - - S 11 15 6 8 - - -
23/01:30pm - - - - - S 11 13 6 7 - - -
23/01:00pm - - - - - S 9 13 5 7 - - -
23/12:30pm - - - - - SE 9 13 5 7 - - -
23/12:00pm - - - - - SE 11 15 6 8 - - -
23/11:30am - - - - - SE 9 13 5 7 - - -
23/11:00am - - - - - SE 11 15 6 8 - - -
23/10:30am - - - - - E 11 13 6 7 - - -
23/10:00am - - - - - ESE 11 15 6 8 - - -
23/09:30am - - - - - ESE 17 20 9 11 - - -
23/09:00am - - - - - ESE 17 22 9 12 - - -
23/08:30am - - - - - ESE 17 20 9 11 - - -
23/08:00am - - - - - ESE 19 24 10 13 - - -
23/07:30am - - - - - ESE 20 24 11 13 - - -
23/07:00am - - - - - SE 17 22 9 12 - - -
23/06:30am - - - - - SE 17 20 9 11 - - -
23/06:00am - - - - - ESE 17 22 9 12 - - -
23/05:30am - - - - - SE 19 24 10 13 - - -
23/05:00am - - - - - ESE 17 22 9 12 - - -
23/04:30am - - - - - SE 20 24 11 13 - - -
23/04:00am - - - - - SE 17 22 9 12 - - -
23/03:30am - - - - - SE 19 22 10 12 - - -
23/03:00am - - - - - ESE 19 24 10 13 - - -

Other formats

Comma delimited format used in spreadsheet applications
http://www.bom.gov.au/fwo/IDV60801/IDV60801.95872.axf

JavaScript Object Notation format (JSON) in row-major order
http://www.bom.gov.au/fwo/IDV60801/IDV60801.95872.json

Data quality

Most of these data are generated automatically and are frequently updated. Quality checks on data are not normally performed. It is possible for incorrect values to appear. Refer to information at About Latest Weather Observations and please check the disclaimer before using these data.